Time;durP1;ratioP1;P1;durP2;ratioP2;P2;SDS_P1;SDS_P2;PMS_P1;PMS_P2;Temp;Humidity;BMP_temperature;BMP_pressure;BME280_temperature;BME280_humidity;BME280_pressure;Samples;Min_cycle;Max_cycle;Signal;HPM_P1;HPM_P2
2022/04/03 02:41:51;;;;;;;20.77;12.07;;;;;;;-0.87;100.00;99550.44;5559145;32;175379;-83
2022/04/03 02:44:54;;;;;;;21.60;12.18;;;;;;;-0.90;100.00;99560.91;5546407;32;34051;-81
2022/04/03 02:47:57;;;;;;;19.02;11.27;;;;;;;-0.86;100.00;99562.56;5550907;32;33532;-81
2022/04/03 02:51:01;;;;;;;18.83;11.45;;;;;;;-0.85;100.00;99571.25;5549791;32;35361;-81
2022/04/03 02:54:04;;;;;;;16.77;10.35;;;;;;;-0.85;100.00;99566.06;5549214;32;34531;-81
2022/04/03 02:57:07;;;;;;;17.55;11.65;;;;;;;-0.87;100.00;99576.47;5545931;32;33795;-81
2022/04/03 03:00:14;;;;;;;16.73;10.20;;;;;;;-0.84;100.00;99578.19;5546019;32;34336;-81
2022/04/03 03:03:17;;;;;;;15.27;10.23;;;;;;;-0.82;100.00;99568.59;5546523;32;33950;-81
2022/04/03 03:06:20;;;;;;;16.30;10.50;;;;;;;-0.78;100.00;99579.81;5545954;32;34074;-81
2022/04/03 03:09:23;;;;;;;17.48;10.68;;;;;;;-0.82;100.00;99582.50;5546088;32;34056;-81
2022/04/03 03:12:26;;;;;;;18.27;11.25;;;;;;;-0.78;100.00;99590.22;5547665;32;34399;-81
2022/04/03 03:15:29;;;;;;;16.65;10.70;;;;;;;-0.74;100.00;99591.91;5553109;32;33742;-81
2022/04/03 03:18:32;;;;;;;15.85;10.13;;;;;;;-0.70;100.00;99596.22;5548941;32;34993;-81
2022/04/03 03:21:36;;;;;;;17.23;11.07;;;;;;;-0.79;100.00;99599.81;5546493;32;34213;-81
2022/04/03 03:24:39;;;;;;;15.85;10.18;;;;;;;-0.81;100.00;99601.56;5545977;32;34460;-81
2022/04/03 03:27:42;;;;;;;16.30;10.45;;;;;;;-0.78;100.00;99601.53;5547089;32;34719;-81
2022/04/03 03:30:45;;;;;;;18.33;11.12;;;;;;;-0.81;100.00;99609.38;5555244;32;34086;-81
2022/04/03 03:33:47;;;;;;;16.77;10.80;;;;;;;-0.86;100.00;99619.03;5559320;32;34890;-81
2022/04/03 03:36:50;;;;;;;17.35;10.93;;;;;;;-0.84;100.00;99622.47;5559649;32;34832;-81
2022/04/03 03:39:53;;;;;;;16.12;9.95;;;;;;;-0.81;100.00;99627.59;5558122;32;35252;-81
2022/04/03 03:42:56;;;;;;;16.80;10.65;;;;;;;-0.76;100.00;99619.75;5545127;32;34020;-81
2022/04/03 03:45:59;;;;;;;14.45;9.88;;;;;;;-0.72;100.00;99630.09;5544894;32;34827;-80
2022/04/03 03:49:02;;;;;;;14.82;10.07;;;;;;;-0.66;100.00;99626.50;5544738;32;34862;-81
2022/04/03 03:52:05;;;;;;;13.48;9.27;;;;;;;-0.65;100.00;99632.59;5544757;32;33799;-81
2022/04/03 03:55:08;;;;;;;15.52;9.95;;;;;;;-0.64;100.00;99637.78;5530074;32;34349;-82
2022/04/03 03:58:11;;;;;;;14.43;9.50;;;;;;;-0.68;100.00;99646.53;5532591;32;33661;-82
2022/04/03 04:01:14;;;;;;;15.68;10.05;;;;;;;-0.70;100.00;99649.16;5531817;32;34043;-82
2022/04/03 04:04:17;;;;;;;16.92;10.52;;;;;;;-0.72;100.00;99650.03;5534073;32;33849;-81
2022/04/03 04:07:20;;;;;;;17.25;10.43;;;;;;;-0.70;100.00;99662.16;5531191;32;33983;-81
2022/04/03 04:10:23;;;;;;;15.10;10.05;;;;;;;-0.70;100.00;99662.16;5539367;32;34631;-81
2022/04/03 04:13:26;;;;;;;15.35;9.82;;;;;;;-0.65;100.00;99659.53;5533345;32;33646;-81
2022/04/03 04:16:28;;;;;;;15.38;10.10;;;;;;;-0.61;100.00;99673.34;5531363;32;33789;-81
2022/04/03 04:19:31;;;;;;;14.25;9.32;;;;;;;-0.57;100.00;99673.28;5530564;32;34457;-81
2022/04/03 04:22:35;;;;;;;15.02;10.25;;;;;;;-0.59;100.00;99672.44;5530767;32;34031;-85
2022/04/03 04:25:38;;;;;;;15.05;9.57;;;;;;;-0.68;100.00;99673.44;5532250;32;33975;-86
2022/04/03 04:28:41;;;;;;;16.48;10.95;;;;;;;-0.64;100.00;99686.41;5539017;32;33639;-86
2022/04/03 04:31:43;;;;;;;14.32;9.43;;;;;;;-0.66;100.00;99686.44;5541522;32;34010;-86
2022/04/03 04:34:46;;;;;;;13.45;9.13;;;;;;;-0.62;100.00;99689.84;5543602;32;33984;-82
2022/04/03 04:37:50;;;;;;;14.95;9.55;;;;;;;-0.66;100.00;99694.25;5542709;32;34847;-82
2022/04/03 04:40:54;;;;;;;13.57;9.32;;;;;;;-0.67;100.00;99705.56;5545600;32;34162;-82
2022/04/03 04:43:57;;;;;;;12.90;8.95;;;;;;;-0.67;100.00;99715.97;5540474;32;34172;-82
2022/04/03 04:47:00;;;;;;;14.93;9.90;;;;;;;-0.62;100.00;99716.78;5532977;32;34454;-81
2022/04/03 04:50:14;;;;;;;14.60;9.52;;;;;;;-0.62;100.00;99724.59;5533428;32;34290;-81
2022/04/03 04:53:17;;;;;;;14.93;9.88;;;;;;;-0.55;100.00;99725.38;5533541;32;33579;-81
2022/04/03 04:56:20;;;;;;;13.70;9.38;;;;;;;-0.54;100.00;99727.09;5534498;32;34065;-81
2022/04/03 04:59:25;;;;;;;13.20;9.55;;;;;;;-0.51;100.00;99736.59;5532610;32;34321;-81
2022/04/03 05:02:28;;;;;;;17.45;10.23;;;;;;;-0.47;100.00;99743.47;5531684;32;33918;-81
2022/04/03 05:05:32;;;;;;;14.20;9.80;;;;;;;-0.46;100.00;99742.63;5533015;32;33789;-82
2022/04/03 05:08:35;;;;;;;14.68;10.32;;;;;;;-0.39;100.00;99745.97;5533789;32;33683;-83
2022/04/03 05:11:39;;;;;;;13.68;9.38;;;;;;;-0.39;100.00;99743.38;5534032;32;34029;-83
2022/04/03 05:14:42;;;;;;;18.12;11.63;;;;;;;-0.39;100.00;99754.69;5535566;32;34151;-83
2022/04/03 05:17:45;;;;;;;14.80;10.60;;;;;;;-0.36;100.00;99758.97;5540667;32;34075;-83
2022/04/03 05:20:49;;;;;;;14.77;10.18;;;;;;;-0.33;100.00;99766.75;5533212;32;33967;-83
2022/04/03 05:23:52;;;;;;;13.93;10.15;;;;;;;-0.32;100.00;99761.50;5533549;32;33594;-82
2022/04/03 05:26:55;;;;;;;17.02;10.73;;;;;;;-0.26;100.00;99762.31;5534470;32;33862;-82
2022/04/03 05:29:58;;;;;;;15.98;10.90;;;;;;;-0.09;100.00;99767.25;5536130;32;33831;-82
2022/04/03 05:33:00;;;;;;;14.95;10.48;;;;;;;-0.10;100.00;99775.97;5541019;32;33933;-82
2022/04/03 05:36:04;;;;;;;13.62;9.70;;;;;;;0.01;100.00;99784.50;5542791;32;34198;-82
2022/04/03 05:39:06;;;;;;;13.23;9.63;;;;;;;0.24;100.00;99780.63;5543056;32;35189;-82
2022/04/03 05:42:09;;;;;;;14.48;8.95;;;;;;;0.34;100.00;99783.94;5546041;32;35114;-82
2022/04/03 05:45:12;;;;;;;12.35;8.93;;;;;;;0.51;100.00;99791.50;5543249;32;34685;-82
2022/04/03 05:48:15;;;;;;;10.82;7.80;;;;;;;0.32;100.00;99796.16;5536164;32;36431;-82
2022/04/03 05:51:19;;;;;;;12.30;7.65;;;;;;;0.46;100.00;99804.59;5531825;32;33950;-82
2022/04/03 05:54:21;;;;;;;12.18;7.78;;;;;;;0.51;100.00;99805.38;5531918;32;33926;-82
2022/04/03 05:57:24;;;;;;;10.02;6.82;;;;;;;0.47;100.00;99802.87;5532315;32;33808;-82
2022/04/03 06:00:27;;;;;;;9.25;6.60;;;;;;;0.48;100.00;99808.06;5531619;32;34039;-82
2022/04/03 06:03:31;;;;;;;8.95;6.70;;;;;;;0.64;100.00;99815.63;5532623;32;34615;-82
2022/04/03 06:06:34;;;;;;;9.10;6.90;;;;;;;0.63;100.00;99816.50;5532165;32;33807;-82
2022/04/03 06:09:37;;;;;;;8.82;6.25;;;;;;;0.54;100.00;99820.13;5532107;32;34530;-82
2022/04/03 06:12:58;;;;;;;7.03;5.68;;;;;;;0.57;100.00;99819.22;5532263;32;33851;-82
2022/04/03 06:16:02;;;;;;;7.97;6.28;;;;;;;0.76;100.00;99823.22;5532471;32;33904;-83
2022/04/03 06:19:05;;;;;;;7.68;6.25;;;;;;;0.74;100.00;99835.47;5532584;32;34014;-82
2022/04/03 06:22:08;;;;;;;8.52;6.25;;;;;;;1.05;100.00;99826.19;5532322;32;33912;-85
2022/04/03 06:25:12;;;;;;;7.80;6.18;;;;;;;0.96;100.00;99839.44;5533196;32;33997;-87
2022/04/03 06:28:15;;;;;;;8.25;6.47;;;;;;;0.84;100.00;99844.00;5535149;32;33776;-87
2022/04/03 06:31:19;;;;;;;8.40;6.55;;;;;;;0.79;100.00;99851.03;5534089;32;33866;-87
2022/04/03 06:34:22;;;;;;;8.23;6.72;;;;;;;0.72;100.00;99849.44;5534017;32;34179;-83
2022/04/03 06:37:24;;;;;;;9.20;7.18;;;;;;;0.86;100.00;99854.41;5533405;32;34376;-83
2022/04/03 06:40:28;;;;;;;10.40;7.68;;;;;;;0.85;100.00;99856.16;5534531;32;33927;-83
2022/04/03 06:43:31;;;;;;;11.48;8.20;;;;;;;0.98;100.00;99863.75;5533720;32;33981;-82
2022/04/03 06:46:34;;;;;;;10.55;8.30;;;;;;;1.05;100.00;99867.97;5534665;32;34172;-83
2022/04/03 06:49:40;;;;;;;12.63;8.93;;;;;;;0.97;100.00;99870.75;5534163;32;33956;-82
2022/04/03 06:52:43;;;;;;;11.85;8.90;;;;;;;1.01;100.00;99871.56;5532692;32;34202;-82
2022/04/03 06:55:45;;;;;;;13.25;9.00;;;;;;;1.02;100.00;99881.13;5531673;32;33936;-83
2022/04/03 06:58:48;;;;;;;13.98;9.35;;;;;;;0.94;100.00;99883.84;5531767;32;33660;-82
2022/04/03 07:01:51;;;;;;;13.85;9.55;;;;;;;1.03;100.00;99888.94;5531844;32;33871;-82
2022/04/03 07:04:57;;;;;;;13.40;9.88;;;;;;;1.12;100.00;99894.87;5531906;32;34411;-82
2022/04/03 07:07:59;;;;;;;15.25;10.65;;;;;;;1.04;100.00;99900.22;5531550;32;33896;-82
2022/04/03 07:11:03;;;;;;;16.85;10.88;;;;;;;1.06;100.00;99904.53;5533309;32;34184;-82
2022/04/03 07:14:06;;;;;;;16.60;11.57;;;;;;;0.82;100.00;99911.06;5530820;32;33654;-82
2022/04/03 07:17:10;;;;;;;16.87;11.43;;;;;;;0.73;100.00;99921.62;5530309;32;34428;-83
2022/04/03 07:20:13;;;;;;;19.48;12.73;;;;;;;0.91;100.00;99923.09;5530570;32;34209;-82
2022/04/03 07:23:17;;;;;;;19.30;13.20;;;;;;;0.97;100.00;99923.00;5530514;32;34264;-82
2022/04/03 07:26:24;;;;;;;17.12;12.98;;;;;;;0.91;100.00;99933.53;5526306;32;34255;-83
2022/04/03 07:29:27;;;;;;;20.60;14.02;;;;;;;1.08;100.00;99941.09;5523961;32;34287;-83
2022/04/03 07:32:31;;;;;;;19.95;13.98;;;;;;;1.18;100.00;99941.78;5531528;32;34116;-82
2022/04/03 07:35:34;;;;;;;20.20;13.52;;;;;;;1.18;100.00;99947.87;5532457;32;34053;-83
2022/04/03 07:38:37;;;;;;;20.40;14.10;;;;;;;0.94;100.00;99959.59;5532779;32;34571;-82
2022/04/03 07:41:40;;;;;;;21.08;14.18;;;;;;;1.10;100.00;99959.34;5533430;32;34669;-83
2022/04/03 07:44:45;;;;;;;21.00;13.73;;;;;;;1.33;100.00;99964.16;5533389;32;34651;-82
2022/04/03 07:47:49;;;;;;;22.25;14.13;;;;;;;1.50;100.00;99978.69;5533973;32;34597;-82
2022/04/03 07:50:53;;;;;;;20.90;13.68;;;;;;;1.76;100.00;99972.94;5533756;32;33929;-82
2022/04/03 07:53:56;;;;;;;24.27;15.02;;;;;;;2.02;100.00;99974.19;5533134;32;33897;-82
2022/04/03 07:56:59;;;;;;;26.23;16.85;;;;;;;1.80;100.00;99985.06;5533655;32;34659;-82
2022/04/03 08:00:02;;;;;;;25.08;17.25;;;;;;;1.60;100.00;99999.38;5533882;32;35069;-82
2022/04/03 08:03:07;;;;;;;27.85;18.20;;;;;;;1.64;100.00;100004.53;5534226;32;34345;-82
2022/04/03 08:06:10;;;;;;;28.85;18.12;;;;;;;1.48;100.00;100010.06;5536964;32;34103;-82
2022/04/03 08:09:13;;;;;;;30.73;19.70;;;;;;;1.67;100.00;100005.38;5537300;32;34372;-82
2022/04/03 08:12:16;;;;;;;29.80;18.90;;;;;;;1.37;100.00;100017.25;5533412;32;34685;-82
2022/04/03 08:15:20;;;;;;;32.53;20.95;;;;;;;1.69;100.00;100016.66;5534052;32;33996;-82
2022/04/03 08:18:24;;;;;;;36.85;21.42;;;;;;;1.57;100.00;100012.50;5532502;32;34373;-82
2022/04/03 08:21:27;;;;;;;33.10;22.15;;;;;;;2.11;100.00;100020.22;5532468;32;34166;-82
2022/04/03 08:24:30;;;;;;;40.03;22.67;;;;;;;1.93;100.00;100021.44;5532805;32;34284;-82
2022/04/03 08:27:47;;;;;;;35.05;21.73;;;;;;;2.34;100.00;100016.25;5531682;32;33851;-82
2022/04/03 08:30:50;;;;;;;32.63;20.25;;;;;;;2.94;100.00;100014.91;5531829;32;34249;-87
2022/04/03 08:33:54;;;;;;;33.55;20.62;;;;;;;2.33;100.00;100020.63;5532083;32;33982;-87
2022/04/03 08:36:57;;;;;;;32.72;20.80;;;;;;;2.39;100.00;100030.09;5532566;32;33985;-82
2022/04/03 08:40:00;;;;;;;30.85;18.87;;;;;;;2.91;100.00;100017.59;5532232;32;34624;-83
2022/04/03 08:43:05;;;;;;;31.90;19.85;;;;;;;3.63;95.57;100026.31;5532538;32;33897;-82
2022/04/03 08:46:08;;;;;;;28.15;18.08;;;;;;;4.42;92.33;100016.22;5532783;32;34141;-82
2022/04/03 08:49:12;;;;;;;29.63;18.60;;;;;;;4.87;87.92;100018.38;5532148;32;34166;-82
2022/04/03 08:52:16;;;;;;;27.27;18.25;;;;;;;5.22;86.98;100024.25;5534101;32;34101;-82
2022/04/03 08:55:20;;;;;;;28.67;18.52;;;;;;;5.32;87.34;100027.47;5532053;32;33685;-82
2022/04/03 08:58:26;;;;;;;30.62;18.10;;;;;;;5.59;86.49;100036.16;5531461;32;34279;-82
2022/04/03 09:01:29;;;;;;;24.02;17.60;;;;;;;6.54;78.72;100032.78;5531860;32;33859;-82
2022/04/03 09:04:32;;;;;;;32.63;18.73;;;;;;;5.71;81.37;100039.28;5532013;32;33749;-82
2022/04/03 09:07:36;;;;;;;27.67;18.15;;;;;;;6.53;77.97;100044.25;5532994;32;33928;-82
2022/04/03 09:10:41;;;;;;;27.50;16.98;;;;;;;5.72;76.78;100051.53;5531481;32;34109;-82
2022/04/03 09:13:45;;;;;;;27.33;17.87;;;;;;;6.38;75.83;100052.75;5531146;32;33769;-82
2022/04/03 09:16:48;;;;;;;25.08;17.27;;;;;;;6.14;75.85;100065.91;5531679;32;34007;-82
2022/04/03 09:19:54;;;;;;;30.92;18.00;;;;;;;4.96;75.59;100062.75;5531952;32;35225;-82
2022/04/03 09:23:01;;;;;;;25.77;17.17;;;;;;;4.35;78.42;100069.84;5531344;32;33888;-82
2022/04/03 09:26:18;;;;;;;27.60;17.98;;;;;;;4.70;78.16;100073.19;5531878;32;34152;-82
2022/04/03 09:29:21;;;;;;;27.65;17.73;;;;;;;5.24;79.71;100064.53;5532876;32;34222;-82
2022/04/03 09:32:27;;;;;;;25.08;16.80;;;;;;;6.28;75.11;100068.88;5532081;32;34317;-82
2022/04/03 09:35:32;;;;;;;24.15;16.75;;;;;;;6.41;75.10;100071.94;5532495;32;34458;-82
2022/04/03 09:38:35;;;;;;;25.92;16.27;;;;;;;7.62;73.53;100074.22;5532811;32;34671;-82
2022/04/03 09:41:57;;;;;;;25.77;16.73;;;;;;;8.17;65.78;100079.81;5532727;32;34811;-82
2022/04/03 09:45:03;;;;;;;22.58;16.30;;;;;;;8.09;63.74;100082.78;5534061;32;34817;-82
2022/04/03 09:48:27;;;;;;;25.15;16.27;;;;;;;8.68;62.91;100087.25;5535740;32;33907;-82
2022/04/03 09:51:30;;;;;;;25.08;15.93;;;;;;;9.33;61.03;100092.13;5534425;32;34748;-87
2022/04/03 09:54:33;;;;;;;20.67;15.77;;;;;;;9.10;62.07;100086.16;5538050;32;34266;-88
2022/04/03 09:57:36;;;;;;;27.30;15.82;;;;;;;8.39;65.69;100092.06;5536460;32;34398;-86
2022/04/03 10:00:41;;;;;;;25.62;15.90;;;;;;;8.04;58.63;100087.44;5533047;32;34496;-83
2022/04/03 10:03:46;;;;;;;22.25;15.93;;;;;;;7.95;63.60;100083.41;5536133;32;34146;-83
2022/04/03 10:06:52;;;;;;;20.92;15.13;;;;;;;8.45;60.10;100092.63;5534075;32;34104;-83
2022/04/03 10:09:54;;;;;;;19.95;15.05;;;;;;;7.44;61.43;100078.47;5529318;32;34279;-83
2022/04/03 10:12:58;;;;;;;21.73;14.43;;;;;;;8.29;61.58;100089.00;5529705;32;33739;-83
2022/04/03 10:16:04;;;;;;;23.35;15.65;;;;;;;8.42;58.52;100084.00;5529876;32;34602;-83
2022/04/03 10:19:06;;;;;;;25.15;15.00;;;;;;;7.16;60.27;100084.91;5529984;32;33612;-82
2022/04/03 10:22:19;;;;;;;21.55;14.73;;;;;;;7.33;58.78;100080.72;5530430;32;33736;-82
2022/04/03 10:25:28;;;;;;;22.90;14.90;;;;;;;8.45;56.78;100097.91;5531010;32;33725;-82
2022/04/03 10:28:32;;;;;;;21.12;14.15;;;;;;;8.60;55.08;100098.19;5530666;32;34424;-82
2022/04/03 10:31:37;;;;;;;21.10;14.23;;;;;;;9.19;55.40;100091.94;5530614;32;34132;-82
2022/04/03 10:34:45;;;;;;;24.92;14.80;;;;;;;9.61;53.26;100096.03;5531932;32;34460;-82
2022/04/03 10:37:59;;;;;;;21.17;14.57;;;;;;;9.80;55.47;100101.25;5531176;32;33849;-82
2022/04/03 10:41:05;;;;;;;18.17;13.52;;;;;;;10.00;53.35;100111.78;5531691;32;34349;-82
2022/04/03 10:44:18;;;;;;;18.37;14.23;;;;;;;9.52;51.09;100101.78;5532364;32;34460;-82
2022/04/03 10:47:21;;;;;;;19.67;14.07;;;;;;;10.35;53.78;100107.28;5533860;32;34971;-82
2022/04/03 10:50:24;;;;;;;21.65;15.48;;;;;;;8.84;53.29;100114.69;5536338;32;34703;-81
2022/04/03 10:53:31;;;;;;;21.42;14.45;;;;;;;8.81;52.32;100112.22;5536413;32;34411;-82
2022/04/03 10:56:34;;;;;;;21.40;13.95;;;;;;;9.21;52.18;100120.03;5537063;32;34132;-82
2022/04/03 10:59:37;;;;;;;18.83;14.32;;;;;;;9.02;49.91;100120.06;5537603;32;33742;-83
2022/04/03 11:02:50;;;;;;;22.20;13.65;;;;;;;8.70;51.12;100127.72;5537909;32;34019;-82
2022/04/03 11:05:53;;;;;;;18.67;13.35;;;;;;;8.62;51.16;100125.41;5535212;32;33968;-82
2022/04/03 11:09:05;;;;;;;19.80;14.65;;;;;;;8.36;53.47;100130.91;5535002;32;34328;-82
2022/04/03 11:12:08;;;;;;;19.55;14.07;;;;;;;7.57;54.44;100130.75;5533745;32;33735;-83
2022/04/03 11:15:13;;;;;;;18.58;13.68;;;;;;;6.59;58.04;100136.25;5534886;32;35493;-82
2022/04/03 11:18:32;;;;;;;21.05;13.23;;;;;;;6.54;56.48;100138.19;5534307;32;34285;-82
2022/04/03 11:21:37;;;;;;;18.05;12.93;;;;;;;6.14;56.70;100148.38;5535818;32;34484;-82
2022/04/03 11:24:40;;;;;;;18.85;12.52;;;;;;;6.44;57.10;100148.22;5533865;32;33660;-82
2022/04/03 11:27:44;;;;;;;19.08;12.63;;;;;;;6.80;57.96;100146.94;5533550;32;33657;-82
2022/04/03 11:30:49;;;;;;;19.73;13.00;;;;;;;7.33;56.21;100157.25;5533529;32;34606;-82
2022/04/03 11:33:51;;;;;;;20.67;12.77;;;;;;;7.53;52.46;100154.66;5534495;32;33136;-83
2022/04/03 11:37:03;;;;;;;17.90;12.20;;;;;;;6.66;53.39;100158.00;5534468;32;34309;-83
2022/04/03 11:40:07;;;;;;;17.92;12.02;;;;;;;7.26;54.47;100152.19;5536426;32;34098;-82
2022/04/03 11:43:16;;;;;;;20.55;12.52;;;;;;;6.77;54.34;100154.94;5535592;32;34277;-83
2022/04/03 11:46:22;;;;;;;17.52;12.43;;;;;;;6.18;55.50;100167.56;5534304;32;33694;-83
2022/04/03 11:49:31;;;;;;;16.12;12.20;;;;;;;6.98;53.77;100157.66;5535066;32;34087;-83
2022/04/03 11:52:35;;;;;;;16.02;12.15;;;;;;;7.08;54.85;100153.78;5537802;32;34912;-83
2022/04/03 11:55:39;;;;;;;16.70;12.43;;;;;;;6.29;54.79;100161.94;5536273;32;34815;-83
2022/04/03 11:58:43;;;;;;;16.95;11.85;;;;;;;6.20;54.79;100173.69;5536782;32;33787;-83
2022/04/03 12:01:50;;;;;;;17.15;12.68;;;;;;;6.14;56.45;100181.78;5537684;32;34219;-83
2022/04/03 12:04:57;;;;;;;19.30;12.02;;;;;;;6.17;54.87;100179.91;5535823;32;34286;-82
2022/04/03 12:08:01;;;;;;;16.37;11.12;;;;;;;6.15;54.15;100176.47;5534042;32;33868;-83
2022/04/03 12:11:29;;;;;;;16.17;11.48;;;;;;;5.95;54.23;100179.75;5533820;32;34478;-82
2022/04/03 12:14:33;;;;;;;16.87;11.00;;;;;;;6.58;52.53;100184.62;5533090;32;34657;-84
2022/04/03 12:17:41;;;;;;;15.95;10.90;;;;;;;7.14;52.61;100186.97;5533415;32;34054;-84
2022/04/03 12:20:44;;;;;;;16.23;10.88;;;;;;;6.15;51.81;100192.28;5532899;32;35156;-82
2022/04/03 12:24:07;;;;;;;15.43;10.80;;;;;;;5.80;53.59;100186.37;5533748;32;33721;-81
2022/04/03 12:27:14;;;;;;;15.45;11.00;;;;;;;6.23;53.30;100185.87;5533504;32;33700;-81
2022/04/03 12:30:18;;;;;;;15.18;11.48;;;;;;;6.09;53.10;100187.22;5536069;32;33711;-81
2022/04/03 12:33:21;;;;;;;17.10;11.35;;;;;;;5.99;51.69;100185.78;5533656;32;33904;-81
2022/04/03 12:36:25;;;;;;;16.75;11.00;;;;;;;6.24;54.21;100183.16;5533227;32;34548;-82
2022/04/03 12:39:33;;;;;;;15.48;11.60;;;;;;;6.60;52.65;100174.88;5532504;32;33915;-82
2022/04/03 12:42:36;;;;;;;13.93;11.27;;;;;;;7.33;53.62;100181.00;5533143;32;34698;-82
2022/04/03 12:45:39;;;;;;;18.08;11.23;;;;;;;6.98;50.75;100184.91;5533290;32;34648;-82
2022/04/03 12:48:51;;;;;;;17.52;12.02;;;;;;;6.56;54.94;100186.47;5533634;32;33866;-82
2022/04/03 12:51:54;;;;;;;17.30;12.13;;;;;;;6.58;52.70;100174.06;5534774;32;33684;-82
2022/04/03 12:54:56;;;;;;;16.80;12.00;;;;;;;6.67;51.79;100172.87;5533412;32;34366;-83
2022/04/03 13:01:25;;;;;;;19.33;11.60;;;;;;;6.75;54.08;100175.25;5538755;32;34831;-82
2022/04/03 13:04:30;;;;;;;14.73;11.45;;;;;;;7.00;52.32;100193.63;5540031;32;34807;-82
2022/04/03 13:07:33;;;;;;;17.42;12.13;;;;;;;6.85;49.56;100175.75;5542281;32;34419;-82
2022/04/03 13:10:53;;;;;;;15.38;11.40;;;;;;;6.97;50.24;100180.56;5538002;32;34170;-82
2022/04/03 13:14:19;;;;;;;16.87;12.07;;;;;;;6.64;50.65;100183.53;5531636;32;33929;-81
2022/04/03 13:17:22;;;;;;;15.65;11.50;;;;;;;5.59;51.25;100188.78;5532682;32;34102;-82
2022/04/03 13:20:25;;;;;;;14.80;11.73;;;;;;;5.33;51.27;100177.31;5534559;32;34138;-82
2022/04/03 13:23:29;;;;;;;19.70;10.77;;;;;;;5.69;52.00;100181.47;5535005;32;33847;-82
2022/04/03 13:26:32;;;;;;;16.37;11.85;;;;;;;5.80;52.16;100181.12;5536859;32;34032;-82
2022/04/03 13:29:38;;;;;;;14.40;10.90;;;;;;;5.99;50.42;100183.13;5536016;32;34269;-82
2022/04/03 13:32:41;;;;;;;15.85;10.90;;;;;;;6.07;49.60;100189.03;5535690;32;34228;-86
2022/04/03 13:35:43;;;;;;;16.52;11.40;;;;;;;6.04;49.75;100182.09;5534393;32;35145;-86
2022/04/03 13:38:47;;;;;;;15.80;10.85;;;;;;;6.03;47.96;100188.28;5535948;32;34645;-86
2022/04/03 13:41:54;;;;;;;15.27;11.20;;;;;;;5.73;50.19;100184.88;5534205;32;33960;-82
2022/04/03 13:44:57;;;;;;;15.43;11.43;;;;;;;6.48;50.46;100185.84;5532954;32;33965;-81
2022/04/03 13:48:00;;;;;;;14.45;11.02;;;;;;;7.06;51.54;100178.50;5532335;32;34043;-82
2022/04/03 13:51:05;;;;;;;15.07;11.25;;;;;;;6.72;49.85;100191.16;5533533;32;34143;-81
2022/04/03 13:54:09;;;;;;;15.73;11.30;;;;;;;6.24;49.11;100195.50;5534067;32;33915;-83
2022/04/03 13:57:14;;;;;;;14.43;10.93;;;;;;;6.06;49.06;100192.56;5534122;32;34115;-82
2022/04/03 14:00:17;;;;;;;13.95;11.50;;;;;;;5.93;49.33;100199.97;5534474;32;33831;-82
2022/04/03 14:03:20;;;;;;;16.02;11.40;;;;;;;5.27;50.75;100206.44;5536655;32;34178;-83
2022/04/03 14:06:24;;;;;;;14.68;10.55;;;;;;;5.47;50.54;100200.56;5536477;32;34297;-82
2022/04/03 14:09:27;;;;;;;15.27;10.82;;;;;;;5.91;50.89;100207.94;5538663;32;33840;-82
2022/04/03 14:12:29;;;;;;;19.10;11.52;;;;;;;6.24;50.35;100209.50;5537934;32;36048;-82
2022/04/03 14:15:34;;;;;;;16.40;10.95;;;;;;;6.08;49.11;100203.91;5535635;32;34489;-82
2022/04/03 14:18:38;;;;;;;15.88;11.35;;;;;;;5.64;50.78;100209.72;5535372;32;34422;-82
2022/04/03 14:21:41;;;;;;;13.77;10.70;;;;;;;5.77;49.89;100208.41;5534119;32;35865;-82
2022/04/03 14:24:44;;;;;;;19.35;10.98;;;;;;;5.48;49.84;100214.59;5535551;32;34674;-82
2022/04/03 14:27:48;;;;;;;15.10;10.77;;;;;;;5.30;50.83;100219.50;5537353;32;34285;-82
2022/04/03 14:30:50;;;;;;;17.10;11.90;;;;;;;5.18;51.98;100218.09;5532888;32;33781;-82
2022/04/03 14:33:53;;;;;;;13.73;10.55;;;;;;;5.28;51.67;100221.31;5533165;32;34671;-82
2022/04/03 14:36:56;;;;;;;14.30;10.65;;;;;;;5.24;50.58;100223.16;5532475;32;33395;-82
2022/04/03 14:39:59;;;;;;;16.92;10.93;;;;;;;5.24;52.18;100225.81;5531809;32;34388;-81
2022/04/03 14:43:02;;;;;;;16.00;10.75;;;;;;;5.13;51.18;100230.50;5532140;32;33841;-82
2022/04/03 14:46:06;;;;;;;16.10;10.57;;;;;;;5.06;51.61;100229.84;5534052;32;33942;-82
2022/04/03 14:49:09;;;;;;;13.43;10.30;;;;;;;5.13;51.44;100234.03;5537224;32;33719;-82
2022/04/03 14:52:15;;;;;;;16.65;11.75;;;;;;;5.40;51.32;100223.56;5537214;32;33932;-82
2022/04/03 14:55:18;;;;;;;18.02;10.90;;;;;;;5.58;50.34;100223.06;5532271;32;35122;-82
2022/04/03 14:58:22;;;;;;;16.48;10.82;;;;;;;5.61;51.00;100229.09;5532238;32;34518;-82
2022/04/03 15:01:25;;;;;;;12.98;10.60;;;;;;;5.39;51.05;100236.78;5534011;32;34626;-82
2022/04/03 15:04:29;;;;;;;12.27;10.27;;;;;;;4.97;51.46;100252.00;5532467;32;34668;-82
2022/04/03 15:07:31;;;;;;;14.10;10.48;;;;;;;4.75;51.98;100249.12;5532670;32;34002;-81
2022/04/03 15:10:35;;;;;;;17.00;10.55;;;;;;;4.88;52.75;100249.63;5532241;32;33988;-81
2022/04/03 15:13:38;;;;;;;18.37;9.68;;;;;;;5.16;52.64;100247.97;5533027;32;34619;-81
2022/04/03 15:16:41;;;;;;;13.68;10.32;;;;;;;5.33;50.00;100235.19;5533501;32;33915;-82
2022/04/03 15:19:44;;;;;;;15.32;10.57;;;;;;;5.47;50.88;100241.78;5532061;32;34098;-82
2022/04/03 15:22:47;;;;;;;15.10;10.80;;;;;;;5.44;49.95;100250.66;5531295;32;33606;-82
2022/04/03 15:25:50;;;;;;;15.35;10.98;;;;;;;5.43;49.62;100242.81;5530812;32;33963;-82
2022/04/03 15:28:53;;;;;;;13.85;10.80;;;;;;;5.44;49.20;100249.78;5530180;32;33984;-82
2022/04/03 15:31:57;;;;;;;17.90;10.60;;;;;;;5.10;49.21;100249.91;5529633;32;33822;-82
2022/04/03 15:35:01;;;;;;;14.20;10.50;;;;;;;5.12;49.36;100253.34;5529554;32;33641;-82
2022/04/03 15:38:05;;;;;;;16.85;10.65;;;;;;;5.02;49.62;100258.91;5529805;32;33645;-82
2022/04/03 15:41:08;;;;;;;14.73;10.80;;;;;;;5.19;50.27;100255.78;5528095;32;33813;-87
2022/04/03 15:44:12;;;;;;;13.23;10.25;;;;;;;5.04;49.46;100271.13;5510358;32;34618;-87
2022/04/03 15:47:15;;;;;;;12.68;10.50;;;;;;;5.08;50.46;100272.72;5510663;32;33587;-87
2022/04/03 15:50:20;;;;;;;16.10;10.40;;;;;;;4.88;49.31;100280.31;5514089;32;35139;-87
2022/04/03 15:53:25;;;;;;;17.08;10.90;;;;;;;4.78;49.91;100267.41;5515702;32;33762;-83
2022/04/03 15:56:28;;;;;;;14.95;10.93;;;;;;;4.77;50.53;100275.38;5511806;32;34257;-83
2022/04/03 15:59:31;;;;;;;17.85;11.12;;;;;;;4.61;50.90;100291.53;5511833;32;34245;-82
2022/04/03 16:02:36;;;;;;;13.55;10.65;;;;;;;4.54;49.95;100297.84;5531290;32;33920;-82
2022/04/03 16:05:39;;;;;;;14.60;10.43;;;;;;;4.41;49.43;100290.28;5551004;32;34202;-83
2022/04/03 16:08:46;;;;;;;14.87;10.50;;;;;;;4.15;50.12;100290.94;5556950;32;34500;-82
2022/04/03 16:11:49;;;;;;;17.50;10.65;;;;;;;4.11;49.84;100297.16;5558759;32;34297;-82
2022/04/03 16:14:52;;;;;;;17.10;11.32;;;;;;;4.04;50.10;100305.16;5561980;32;34084;-82
2022/04/03 16:17:56;;;;;;;15.27;10.23;;;;;;;3.97;51.48;100310.63;5559234;32;35236;-82
2022/04/03 16:20:58;;;;;;;13.13;10.65;;;;;;;3.83;52.41;100316.19;5559221;32;34344;-82
2022/04/03 16:24:03;;;;;;;14.00;10.63;;;;;;;3.78;52.71;100321.53;5553767;32;33960;-82
2022/04/03 16:27:06;;;;;;;14.25;10.35;;;;;;;3.67;52.77;100321.75;5553280;32;34133;-82
2022/04/03 16:30:29;;;;;;;15.73;10.98;;;;;;;3.74;52.79;100331.25;5552827;32;34828;-82
2022/04/03 16:33:32;;;;;;;14.65;10.48;;;;;;;3.56;52.99;100336.91;5553293;32;34274;-82
2022/04/03 16:36:36;;;;;;;14.43;9.93;;;;;;;3.49;52.72;100341.41;5552125;32;34078;-82
2022/04/03 16:39:39;;;;;;;13.52;10.73;;;;;;;3.36;53.34;100354.75;5552871;32;34572;-82
2022/04/03 16:42:43;;;;;;;14.48;11.23;;;;;;;3.31;53.02;100348.75;5555066;32;34181;-82
2022/04/03 16:45:46;;;;;;;16.58;11.55;;;;;;;3.20;54.22;100358.56;5552813;32;34829;-81
2022/04/03 16:48:49;;;;;;;15.85;10.55;;;;;;;3.21;54.00;100360.28;5552506;32;34909;-81
2022/04/03 16:51:52;;;;;;;16.02;11.60;;;;;;;3.03;54.37;100372.87;5551841;32;34337;-81